Flight Track Log - Related Links

Times and Time Zones

All times are in EDT time to prevent confusion due to time zone crossing. See the CONN400 flight status page for this flight to view local times or setup timezone preferences in your user account.

Time Position Orientation Groundspeed Altitude Reporting Facility
EDT Latitude Longitude Course Direction KTS MPH feet Rate Location/Type
Mon 09:29:07 PM 28.8667 -81.2833 139° Southeast 152 175 3,100  Level Orlando TRACON
Mon 09:30:07 PM 28.8667 -81.2333 90° East 146 168 2,900 -99 Descending Orlando TRACON
Mon 09:31:08 PM 28.8500 -81.1833 111° Southeast 125 144 2,900 -298 Level Orlando TRACON
Mon 09:32:08 PM 28.8500 -81.1500 90° East 133 153 2,300 -600 Descending Orlando TRACON
Mon 09:33:08 PM 28.8333 -81.1167 120° Southeast 134 154 1,700 -421 Descending Orlando TRACON
Mon 09:34:00 PM 28.7770 -81.2349 139° Southeast  Level Estimated
Mon 09:34:02 PM 28.8167 -81.0833 120° Southeast 128 147 1,500  Level Orlando TRACON
Mon 09:35:08 PM 28.7833 -81.1000 204° Southwest 110 127 1,500 -95 Level Orlando TRACON
Mon 09:36:08 PM 28.7833 -81.1500 270° West 112 129 1,300 -400 Descending Orlando TRACON
Mon 09:37:08 PM 28.7833 -81.1833 270° West 110 127 700 -118 Descending Orlando TRACON
Mon 09:39:32 PM 28.8000 -81.2500 286° West 112 129 900 226 Climbing Orlando TRACON
Mon 09:40:14 PM 28.8000 -81.2667 270° West 102 117 1,400 586 Climbing Orlando TRACON
Mon 09:42:26 PM 28.8500 -81.3167 319° Northwest 137 158 2,600 516 Climbing Orlando TRACON
Mon 09:43:20 PM 28.8667 -81.2833 60° Northeast 127 146 3,000 211 Climbing Orlando TRACON
Mon 09:44:20 PM 28.8667 -81.2333 90° East 148 170 3,000  Level Orlando TRACON
Mon 09:45:14 PM 28.8667 -81.2000 90° East 140 161 3,000  Level Orlando TRACON
Mon 09:46:14 PM 28.8667 -81.1500 90° East 139 160 3,000  Level Orlando TRACON
Mon 09:47:14 PM 28.8667 -81.1000 90° East 141 162 3,000 -364 Level Orlando TRACON
Mon 09:48:26 PM 28.8667 -81.0500 90° East 141 162 2,200 -524 Descending Orlando TRACON
Mon 09:49:20 PM 28.8667 -81.0167 90° East 126 145 1,900 -105 Descending Orlando TRACON
Mon 09:50:20 PM 28.8500 -81.0000 139° Southeast 116 133 2,000 -100 Climbing Orlando TRACON
Mon 09:51:20 PM 28.8167 -81.0000 180° South 123 142 1,700 -222 Descending Orlando TRACON
Mon 09:52:08 PM 28.7833 -81.0167 204° Southwest 130 150 1,600  Descending Orlando TRACON
Mon 09:53:14 PM 28.7833 -81.0500 270° West 116 133 1,700  Climbing Orlando TRACON
Mon 09:54:14 PM 28.7833 -81.0833 270° West 104 120 1,600 -45 Descending Orlando TRACON
Mon 09:55:26 PM 28.7833 -81.1167 270° West 104 120 1,600 -150 Level Orlando TRACON
Mon 09:56:14 PM 28.7833 -81.1500 270° West 99 114 1,300 -400 Descending Orlando TRACON
Mon 09:57:26 PM 28.7833 -81.1833 270° West 92 106 800 -417 Descending Orlando TRACON
Mon 09:59:00 PM 28.7733 -81.2134 249° West  Level FlightAware Approximate
Mon 10:06:00 PM 28.7667 -81.2333 242° Southwest  Level FlightAware Approximate
Mon 10:07:00 PM 28.7770 -81.2349 325° Northwest  Level Estimated
Mon 10:08:00 PM 28.7770 -81.2349 322° Northwest  Level Estimated
Mon 10:09:00 PM 28.7770 -81.2349 322° Northwest  Level Estimated
Mon 10:10:00 PM 28.7770 -81.2349 322° Northwest  Level Estimated
Mon 10:11:00 PM 28.7770 -81.2349 322° Northwest  Level Estimated
Mon 10:12:00 PM 28.7770 -81.2349 319° Northwest  Level Estimated
Mon 10:13:00 PM 28.7770 -81.2349 320° Northwest  Level Estimated

Login

Don't have an account? Register now (free) for customized features, flight alerts, and more!